createdAt,value
2017-08-02T00:02:13.253Z,11.40
2017-08-02T00:04:40.837Z,15.60
2017-08-02T00:07:18.513Z,13.33
2017-08-02T00:09:46.132Z,15.47
2017-08-02T00:12:14.562Z,14.40
2017-08-02T00:14:42.090Z,13.00
2017-08-02T00:17:09.766Z,14.63
2017-08-02T00:19:37.358Z,15.10
2017-08-02T00:22:05.118Z,13.50
2017-08-02T00:24:33.028Z,13.20
2017-08-02T00:27:01.278Z,13.10
2017-08-02T00:29:28.972Z,11.83
2017-08-02T00:31:57.454Z,14.13
2017-08-02T00:34:25.134Z,13.93
2017-08-02T00:36:52.645Z,13.63
2017-08-02T00:39:20.360Z,20.77
2017-08-02T00:41:48.002Z,16.50
2017-08-02T00:44:15.658Z,19.90
2017-08-02T00:46:44.097Z,14.47
2017-08-02T00:49:11.606Z,21.27
2017-08-02T00:51:39.428Z,16.60
2017-08-02T00:54:07.028Z,16.07
2017-08-02T00:56:34.766Z,13.47
2017-08-02T00:59:02.420Z,15.23
2017-08-02T01:01:30.334Z,13.90
2017-08-02T01:03:57.998Z,14.47
2017-08-02T01:06:26.074Z,20.87
2017-08-02T01:08:53.745Z,13.07
2017-08-02T01:11:21.336Z,18.07
2017-08-02T01:13:49.060Z,12.97
2017-08-02T01:16:16.603Z,15.00
2017-08-02T01:18:44.208Z,14.40
2017-08-02T01:21:11.806Z,16.13
2017-08-02T01:23:39.345Z,14.47
2017-08-02T01:26:06.943Z,14.20
2017-08-02T01:28:34.519Z,15.07
2017-08-02T01:31:03.686Z,17.00
2017-08-02T01:33:31.242Z,16.87
2017-08-02T01:35:58.773Z,15.25
2017-08-02T01:38:26.296Z,19.50
2017-08-02T01:40:53.817Z,16.97
2017-08-02T01:43:21.318Z,18.53
2017-08-02T01:45:48.863Z,14.30
2017-08-02T01:48:16.401Z,17.63
2017-08-02T01:50:43.920Z,17.20
2017-08-02T01:53:11.422Z,20.33
2017-08-02T01:55:38.933Z,21.03
2017-08-02T01:58:06.442Z,19.53
2017-08-02T02:00:34.066Z,16.53
2017-08-02T02:03:01.606Z,18.57
2017-08-02T02:05:30.181Z,20.30
2017-08-02T02:07:57.742Z,20.37
2017-08-02T02:10:25.285Z,17.10
2017-08-02T02:12:53.565Z,16.70
2017-08-02T02:15:21.874Z,16.43
2017-08-02T02:17:49.385Z,17.50
2017-08-02T02:20:16.931Z,16.60
2017-08-02T02:22:45.223Z,21.23
2017-08-02T02:25:12.745Z,15.23
2017-08-02T02:27:40.250Z,24.30
2017-08-02T02:30:07.762Z,14.80
2017-08-02T02:32:35.274Z,18.13
2017-08-02T02:35:03.533Z,17.30
2017-08-02T02:37:31.047Z,19.10
2017-08-02T02:39:58.551Z,21.77
2017-08-02T02:42:26.067Z,19.50
2017-08-02T02:44:53.566Z,21.13
2017-08-02T02:47:21.084Z,20.03
2017-08-02T02:49:48.617Z,20.73
2017-08-02T02:52:16.162Z,25.47
2017-08-02T02:54:44.445Z,28.37
2017-08-02T02:57:12.724Z,20.43
2017-08-02T02:59:41.005Z,26.43
2017-08-02T03:02:09.269Z,12.37
2017-08-02T03:04:36.777Z,9.70
2017-08-02T03:07:04.270Z,9.30
2017-08-02T03:09:31.773Z,10.77
2017-08-02T03:11:59.265Z,11.03
2017-08-02T03:14:26.796Z,9.07
2017-08-02T03:16:54.334Z,12.10
2017-08-02T03:19:22.714Z,12.63
2017-08-02T03:21:50.261Z,10.53
2017-08-02T03:24:17.774Z,11.53
2017-08-02T03:26:45.294Z,11.57
2017-08-02T03:29:13.884Z,12.90
2017-08-02T03:31:41.539Z,11.30
2017-08-02T03:34:11.028Z,17.40
2017-08-02T03:36:39.533Z,16.70
2017-08-02T03:39:08.471Z,15.63
2017-08-02T03:41:36.329Z,15.77
2017-08-02T03:44:04.093Z,9.47
2017-08-02T03:46:35.871Z,13.07
2017-08-02T03:49:03.454Z,11.13
2017-08-02T03:51:31.172Z,13.70
2017-08-02T03:53:59.087Z,12.50
2017-08-02T03:56:26.740Z,10.13
2017-08-02T03:58:54.342Z,10.00
2017-08-02T04:01:22.228Z,10.80
2017-08-02T04:03:50.376Z,9.10
2017-08-02T04:06:19.202Z,12.40
2017-08-02T04:08:47.346Z,15.33
2017-08-02T04:11:15.341Z,24.63
2017-08-02T04:13:43.584Z,18.57
2017-08-02T04:16:14.472Z,33.40
2017-08-02T04:18:44.778Z,36.83
2017-08-02T04:21:14.249Z,27.80
2017-08-02T04:23:44.117Z,28.98
2017-08-02T04:26:13.577Z,32.72
2017-08-02T04:28:42.161Z,34.90
2017-08-02T04:31:11.502Z,26.90
2017-08-02T04:33:40.698Z,24.90
2017-08-02T04:36:08.553Z,26.47
2017-08-02T04:38:48.137Z,23.60
2017-08-02T04:41:26.014Z,23.97
2017-08-02T04:44:04.585Z,26.90
2017-08-02T04:46:33.138Z,19.83
2017-08-02T04:49:00.735Z,23.15
2017-08-02T04:51:29.130Z,22.43
2017-08-02T04:53:56.687Z,23.60
2017-08-02T04:56:24.270Z,20.57
2017-08-02T04:58:51.946Z,26.20
2017-08-02T05:01:19.495Z,20.27
2017-08-02T05:03:47.106Z,21.50
2017-08-02T05:06:14.665Z,20.00
2017-08-02T05:08:42.241Z,18.60
2017-08-02T05:11:09.775Z,20.80
2017-08-02T05:13:37.333Z,17.37
2017-08-02T05:16:04.963Z,21.87
2017-08-02T05:18:32.566Z,19.93
2017-08-02T05:21:00.130Z,13.57
2017-08-02T05:23:27.810Z,17.50
2017-08-02T05:25:56.191Z,15.43
2017-08-02T05:28:23.742Z,16.60
2017-08-02T05:30:52.117Z,13.80
2017-08-02T05:33:21.683Z,16.53
2017-08-02T05:35:49.226Z,13.80
2017-08-02T05:38:16.730Z,21.10
2017-08-02T05:40:44.278Z,18.50
2017-08-02T05:43:11.794Z,14.93
2017-08-02T05:45:39.413Z,12.67
2017-08-02T05:48:07.008Z,15.10
2017-08-02T05:50:34.661Z,14.90
2017-08-02T05:53:03.038Z,15.67
2017-08-02T05:55:31.393Z,11.90
2017-08-02T05:57:58.914Z,19.03
2017-08-02T06:00:26.424Z,10.83
2017-08-02T06:02:53.948Z,12.47
2017-08-02T06:05:21.490Z,9.70
2017-08-02T06:07:49.010Z,12.57
2017-08-02T06:10:17.298Z,12.03
2017-08-02T06:12:45.566Z,8.17
2017-08-02T06:15:14.717Z,9.87
2017-08-02T06:17:42.237Z,7.40
2017-08-02T06:20:10.506Z,6.97
2017-08-02T06:22:38.810Z,7.33
2017-08-02T06:25:06.365Z,8.37
2017-08-02T06:27:33.887Z,6.57
2017-08-02T06:30:01.403Z,6.23
2017-08-02T06:32:28.914Z,5.70
2017-08-02T06:34:56.422Z,9.77
2017-08-02T06:37:23.919Z,9.07
2017-08-02T06:39:51.462Z,9.90
2017-08-02T06:42:18.962Z,6.90
2017-08-02T06:44:47.249Z,6.00
2017-08-02T06:47:15.523Z,5.73
2017-08-02T06:49:43.798Z,8.23
2017-08-02T06:52:11.345Z,4.13
2017-08-02T06:54:39.686Z,8.03
2017-08-02T06:57:07.214Z,5.87
2017-08-02T06:59:35.479Z,4.00
2017-08-02T07:02:02.981Z,5.17
2017-08-02T07:04:30.474Z,6.53
2017-08-02T07:06:58.007Z,5.27
2017-08-02T07:09:25.501Z,7.07
2017-08-02T07:11:53.017Z,2.97
2017-08-02T07:14:20.557Z,4.95
2017-08-02T07:16:48.082Z,3.63
2017-08-02T07:19:15.612Z,5.20
2017-08-02T07:21:43.114Z,5.57
2017-08-02T07:24:10.622Z,4.53
2017-08-02T07:26:38.130Z,4.90
2017-08-02T07:29:06.430Z,4.67
2017-08-02T07:31:34.706Z,7.13
2017-08-02T07:34:03.078Z,4.27
2017-08-02T07:36:31.341Z,4.60
2017-08-02T07:38:58.841Z,8.40
2017-08-02T07:41:26.356Z,4.50
2017-08-02T07:43:53.961Z,5.97
2017-08-02T07:46:21.649Z,8.67
2017-08-02T07:48:49.185Z,6.47
2017-08-02T07:51:16.941Z,5.03
2017-08-02T07:53:44.496Z,5.23
2017-08-02T07:56:12.022Z,5.07
2017-08-02T07:58:39.661Z,5.97
2017-08-02T08:01:07.187Z,4.83
2017-08-02T08:03:34.725Z,6.20
2017-08-02T08:06:02.238Z,4.30
2017-08-02T08:08:29.770Z,3.90
2017-08-02T08:10:57.289Z,8.77
2017-08-02T11:29:26.906Z,12.73
2017-08-02T11:31:54.403Z,8.80
2017-08-02T11:34:21.909Z,8.83
2017-08-02T11:36:49.401Z,13.10
2017-08-02T11:39:20.854Z,13.17
2017-08-02T11:41:48.366Z,10.90
2017-08-02T11:44:19.571Z,15.87
2017-08-02T11:46:47.058Z,12.80
2017-08-02T11:49:14.598Z,16.53
2017-08-02T11:51:42.097Z,13.63
2017-08-02T11:54:09.658Z,10.67
2017-08-02T11:56:37.170Z,14.90
2017-08-02T11:59:04.661Z,16.20
2017-08-02T12:01:32.170Z,18.60
2017-08-02T12:04:00.427Z,15.13
2017-08-02T12:06:27.929Z,11.98
2017-08-02T12:08:55.429Z,12.00
2017-08-02T12:11:22.938Z,10.00
2017-08-02T12:13:50.454Z,10.63
2017-08-02T12:16:17.989Z,17.63
2017-08-02T12:18:45.481Z,12.57
2017-08-02T12:21:12.974Z,12.63
2017-08-02T12:23:40.486Z,10.82
2017-08-02T12:26:07.978Z,10.57
2017-08-02T12:28:36.245Z,13.47
2017-08-02T12:31:04.498Z,14.10
2017-08-02T12:33:32.001Z,16.30
2017-08-02T12:35:59.494Z,15.03
2017-08-02T12:38:27.002Z,10.30
2017-08-02T12:40:55.257Z,11.23
2017-08-02T12:43:22.776Z,8.00
2017-08-02T12:45:50.298Z,12.30
2017-08-02T12:48:17.838Z,8.97
2017-08-02T12:50:45.556Z,13.73
2017-08-02T12:53:13.110Z,14.57
2017-08-02T12:55:40.643Z,13.07
2017-08-02T12:58:19.217Z,10.27
2017-08-02T13:00:46.725Z,16.00
2017-08-02T13:03:14.993Z,11.90
2017-08-02T13:05:43.265Z,12.33
2017-08-02T13:08:10.757Z,16.10
2017-08-02T13:10:38.270Z,12.77
2017-08-02T13:13:05.771Z,14.17
2017-08-02T13:15:33.297Z,13.97
2017-08-02T13:18:00.789Z,13.57
2017-08-02T13:20:28.285Z,17.13
2017-08-02T13:22:55.793Z,16.00
2017-08-02T13:25:24.046Z,16.20
2017-08-02T13:27:51.554Z,16.33
2017-08-02T13:30:19.124Z,15.67
2017-08-02T13:32:46.633Z,11.00
2017-08-02T13:35:14.128Z,14.43
2017-08-02T13:37:41.638Z,17.57
2017-08-02T13:40:09.130Z,13.97
2017-08-02T13:42:37.390Z,12.73
2017-08-02T13:45:04.902Z,11.00
2017-08-02T13:47:32.410Z,17.10
2017-08-02T13:49:59.949Z,14.00
2017-08-02T13:52:27.475Z,13.50
2017-08-02T13:54:54.982Z,13.43
2017-08-02T13:57:22.474Z,12.60
2017-08-02T13:59:50.002Z,12.82
2017-08-02T14:02:17.503Z,10.93
2017-08-02T14:04:45.005Z,13.87
2017-08-02T14:07:12.518Z,12.93
2017-08-02T14:09:40.005Z,16.60
2017-08-02T14:12:07.519Z,13.20
2017-08-02T14:14:35.785Z,13.93
2017-08-02T14:17:04.070Z,17.53
2017-08-02T14:19:32.336Z,11.73
2017-08-02T14:21:59.869Z,19.20
2017-08-02T14:24:27.365Z,14.03
2017-08-02T14:26:55.957Z,11.73
2017-08-02T14:29:23.458Z,12.70
2017-08-02T14:31:51.003Z,10.60
2017-08-02T14:34:18.489Z,15.03
2017-08-02T14:36:45.978Z,14.17
2017-08-02T14:39:13.489Z,13.37
2017-08-02T14:41:40.982Z,12.03
2017-08-02T14:44:08.496Z,16.33
2017-08-02T14:46:35.989Z,13.27
2017-08-02T14:49:03.497Z,10.30
2017-08-02T14:51:30.995Z,15.60
2017-08-02T14:53:58.525Z,13.10
2017-08-02T14:56:26.022Z,15.73
2017-08-02T14:58:53.515Z,14.27
2017-08-02T15:01:21.793Z,14.53
2017-08-02T15:03:50.054Z,13.13
2017-08-02T15:06:17.562Z,22.37
2017-08-02T15:08:45.060Z,20.93
2017-08-02T15:11:12.577Z,14.80
2017-08-02T15:13:40.090Z,15.60
2017-08-02T15:16:07.594Z,16.23
2017-08-02T15:18:35.089Z,17.40
2017-08-02T15:21:02.623Z,19.20
2017-08-02T15:23:30.118Z,14.20
2017-08-02T15:25:57.605Z,11.80
2017-08-02T15:28:26.713Z,13.83
2017-08-02T15:30:55.034Z,15.27
2017-08-02T15:33:22.554Z,12.93
2017-08-02T15:35:50.048Z,13.47
2017-08-02T15:38:18.426Z,13.17
2017-08-02T15:40:46.465Z,20.13
2017-08-02T15:43:14.734Z,14.17
2017-08-02T15:45:42.996Z,14.30
2017-08-02T15:48:10.578Z,33.97
2017-08-02T15:50:38.072Z,16.93
2017-08-02T15:53:05.597Z,11.97
2017-08-02T15:55:33.850Z,13.67
2017-08-02T15:58:02.122Z,16.57
2017-08-02T16:00:29.630Z,13.33
2017-08-02T16:02:57.176Z,11.47
2017-08-02T16:05:24.686Z,16.53
2017-08-02T16:07:52.173Z,19.77
2017-08-02T16:10:20.442Z,13.53
2017-08-02T16:12:47.934Z,24.47
2017-08-02T16:15:15.449Z,17.83
2017-08-02T16:17:42.946Z,14.07
2017-08-02T16:20:10.485Z,17.33
2017-08-02T16:22:38.744Z,14.10
2017-08-02T16:25:06.247Z,13.93
2017-08-02T16:27:33.749Z,11.60
2017-08-02T16:30:01.245Z,12.80
2017-08-02T16:32:29.516Z,17.40
2017-08-02T16:34:57.781Z,11.83
2017-08-02T16:37:25.292Z,18.63
2017-08-02T16:39:52.785Z,14.30
2017-08-02T16:42:20.299Z,16.00
2017-08-02T16:44:47.837Z,12.60
2017-08-02T16:47:16.158Z,20.67
2017-08-02T16:49:43.645Z,15.70
2017-08-02T16:52:11.185Z,15.00
2017-08-02T16:54:38.702Z,15.73
2017-08-02T16:57:06.964Z,14.00
2017-08-02T16:59:34.506Z,17.73
2017-08-02T17:02:01.999Z,13.03
2017-08-02T17:04:29.514Z,19.80
2017-08-02T17:06:57.822Z,13.70
2017-08-02T17:09:26.101Z,12.37
2017-08-02T17:11:54.361Z,17.93
2017-08-02T17:14:21.874Z,15.80
2017-08-02T17:16:49.398Z,17.37
2017-08-02T17:19:17.691Z,18.50
2017-08-02T17:21:45.186Z,18.67
2017-08-02T17:24:12.714Z,22.00
2017-08-02T17:26:40.213Z,22.97
2017-08-02T17:29:08.534Z,13.63
2017-08-02T17:31:37.998Z,16.10
2017-08-02T17:34:05.481Z,16.17
2017-08-02T17:36:32.981Z,23.13
2017-08-02T17:39:02.321Z,21.20
2017-08-02T17:41:29.839Z,16.50
2017-08-02T17:43:57.335Z,20.77
2017-08-02T17:46:24.849Z,19.67
2017-08-02T17:48:53.807Z,19.97
2017-08-02T17:51:21.325Z,18.30
2017-08-02T17:53:48.816Z,25.73
2017-08-02T17:56:16.321Z,16.60
2017-08-02T17:58:43.813Z,15.70
2017-08-02T18:01:11.333Z,20.90
2017-08-02T18:03:39.006Z,21.23
2017-08-02T18:06:06.525Z,21.30
2017-08-02T18:08:34.077Z,16.53
2017-08-02T18:11:01.608Z,21.03
2017-08-02T18:13:29.158Z,29.87
2017-08-02T18:15:56.714Z,27.07
2017-08-02T18:18:24.286Z,17.27
2017-08-02T18:20:51.909Z,20.10
2017-08-02T18:23:20.181Z,14.23
2017-08-02T18:25:47.713Z,25.60
2017-08-02T18:28:15.247Z,12.77
2017-08-02T18:30:42.736Z,20.33
2017-08-02T18:33:10.451Z,15.50
2017-08-02T18:35:38.039Z,14.17
2017-08-02T18:38:05.526Z,17.53
2017-08-02T18:40:33.034Z,29.87
2017-08-02T18:43:00.530Z,27.10
2017-08-02T18:45:28.098Z,15.60
2017-08-02T18:47:55.593Z,22.27
2017-08-02T18:50:23.907Z,23.07
2017-08-02T18:52:51.475Z,23.03
2017-08-02T18:55:19.027Z,26.73
2017-08-02T18:57:46.537Z,19.70
2017-08-02T19:00:14.149Z,25.43
2017-08-02T19:02:41.718Z,23.37
2017-08-02T19:05:09.275Z,25.50
2017-08-02T19:07:36.806Z,24.20
2017-08-02T19:10:04.352Z,24.57
2017-08-02T19:12:32.664Z,31.10
2017-08-02T19:15:00.239Z,22.30
2017-08-02T19:17:27.803Z,20.37
2017-08-02T19:19:55.378Z,25.70
2017-08-02T19:22:22.946Z,22.73
2017-08-02T19:24:50.458Z,25.73
2017-08-02T19:27:18.011Z,17.70
2017-08-02T19:29:45.597Z,24.03
2017-08-02T19:32:13.267Z,25.13
2017-08-02T19:34:40.769Z,24.03
2017-08-02T19:37:09.110Z,32.83
2017-08-02T19:39:36.669Z,31.80
2017-08-02T19:42:04.185Z,22.77
2017-08-02T19:44:31.689Z,31.77
2017-08-02T19:46:59.209Z,25.00
2017-08-02T19:49:26.766Z,30.00
2017-08-02T19:51:54.346Z,21.17
2017-08-02T19:54:21.907Z,25.93
2017-08-02T19:56:49.473Z,31.50
2017-08-02T19:59:17.145Z,26.90
2017-08-02T20:01:44.637Z,21.90
2017-08-02T20:04:12.157Z,29.47
2017-08-02T20:06:39.713Z,26.70
2017-08-02T20:09:09.192Z,27.40
2017-08-02T20:11:37.458Z,21.30
2017-08-02T20:14:05.047Z,21.70
2017-08-02T20:16:33.425Z,25.87
2017-08-02T20:19:01.004Z,25.97
2017-08-02T20:21:28.566Z,21.23
2017-08-02T20:23:56.061Z,19.47
2017-08-02T20:26:23.794Z,27.63
2017-08-02T20:28:51.290Z,30.00
2017-08-02T20:31:18.895Z,21.20
2017-08-02T20:33:46.480Z,26.23
2017-08-02T20:36:14.054Z,23.53
2017-08-02T20:38:41.613Z,23.13
2017-08-02T20:41:09.122Z,27.47
2017-08-02T20:43:37.385Z,22.03
2017-08-02T20:46:04.930Z,36.37
2017-08-02T20:48:32.430Z,24.50
2017-08-02T20:51:00.010Z,26.30
2017-08-02T20:53:27.521Z,27.17
2017-08-02T20:55:55.072Z,29.10
2017-08-02T20:58:22.601Z,29.67
2017-08-02T21:00:50.174Z,30.70
2017-08-02T21:03:17.688Z,25.07
2017-08-02T21:05:45.267Z,26.83
2017-08-02T21:08:12.941Z,25.47
2017-08-02T21:10:40.445Z,23.60
2017-08-02T21:13:07.990Z,23.63
2017-08-02T21:15:35.481Z,28.07
2017-08-02T21:18:03.748Z,31.27
2017-08-02T21:20:32.026Z,26.00
2017-08-02T21:22:59.586Z,25.93
2017-08-02T21:25:27.903Z,19.57
2017-08-02T21:27:55.405Z,25.07
2017-08-02T21:30:23.677Z,25.13
2017-08-02T21:32:51.201Z,27.10
2017-08-02T21:37:53.341Z,27.70
2017-08-02T21:40:21.638Z,25.00
2017-08-02T21:42:49.142Z,27.13
2017-08-02T21:45:16.646Z,25.27
2017-08-02T21:47:44.960Z,24.33
2017-08-02T21:50:22.382Z,23.70
2017-08-02T21:52:49.914Z,27.37
2017-08-02T21:55:17.421Z,24.37
2017-08-02T21:57:44.941Z,20.17
2017-08-02T22:00:12.445Z,30.53
2017-08-02T22:02:40.725Z,26.90
2017-08-02T22:05:09.045Z,26.10
2017-08-02T22:07:36.566Z,23.70
2017-08-02T22:10:04.850Z,21.77
2017-08-02T22:12:33.163Z,23.20
2017-08-02T22:15:00.824Z,27.83
2017-08-02T22:17:28.686Z,29.33
2017-08-02T22:19:56.278Z,22.30
2017-08-02T22:22:23.882Z,27.23
2017-08-02T22:24:54.324Z,25.07
2017-08-02T22:27:22.154Z,21.60
2017-08-02T22:29:50.482Z,21.97
2017-08-02T22:32:18.855Z,24.33
2017-08-02T22:34:46.637Z,22.17
2017-08-02T22:37:14.219Z,22.67
2017-08-02T22:39:42.058Z,24.30
2017-08-02T22:42:09.642Z,24.53
2017-08-02T22:44:37.133Z,27.67
2017-08-02T22:47:04.645Z,24.53
2017-08-02T22:49:32.142Z,20.33
2017-08-02T22:51:59.657Z,29.03
2017-08-02T22:57:01.159Z,25.00
2017-08-02T22:59:28.653Z,17.83
2017-08-02T23:01:56.174Z,24.60
2017-08-02T23:04:25.453Z,25.13
2017-08-02T23:06:55.049Z,24.23
2017-08-02T23:09:22.546Z,28.47
2017-08-02T23:11:50.062Z,24.80
2017-08-02T23:14:17.577Z,26.70
2017-08-02T23:16:45.080Z,20.37
2017-08-02T23:19:12.621Z,22.83
2017-08-02T23:21:40.912Z,26.43
2017-08-02T23:24:08.477Z,29.60
2017-08-02T23:26:36.005Z,22.50
2017-08-02T23:29:04.325Z,25.93
2017-08-02T23:31:32.548Z,27.23
2017-08-02T23:34:00.050Z,26.27
2017-08-02T23:36:27.565Z,26.50
2017-08-02T23:38:55.066Z,28.97
2017-08-02T23:41:22.706Z,25.80
2017-08-02T23:43:50.969Z,20.70
2017-08-02T23:46:18.517Z,29.47
2017-08-02T23:48:46.018Z,21.80
2017-08-02T23:51:13.630Z,26.83
2017-08-02T23:53:41.174Z,23.77
2017-08-02T23:56:08.700Z,25.63
2017-08-02T23:58:37.003Z,24.90
